createdAt,value
2019-02-05T00:02:15.173Z,7.93
2019-02-05T00:04:45.151Z,7.73
2019-02-05T00:07:34.013Z,6.50
2019-02-05T00:10:09.838Z,6.00
2019-02-05T00:12:39.396Z,5.70
2019-02-05T00:15:09.489Z,5.87
2019-02-05T00:17:40.691Z,6.57
2019-02-05T00:20:11.026Z,8.17
2019-02-05T00:22:40.620Z,7.40
2019-02-05T00:25:11.056Z,8.20
2019-02-05T00:27:42.186Z,8.80
2019-02-05T00:30:15.604Z,6.90
2019-02-05T00:32:45.654Z,7.27
2019-02-05T00:35:15.564Z,8.37
2019-02-05T00:37:45.212Z,7.60
2019-02-05T00:40:17.063Z,8.67
2019-02-05T00:42:48.132Z,7.80
2019-02-05T00:45:19.885Z,7.77
2019-02-05T00:47:50.092Z,8.03
2019-02-05T00:50:20.888Z,10.60
2019-02-05T00:52:50.448Z,6.77
2019-02-05T00:55:21.781Z,6.47
2019-02-05T00:57:51.328Z,7.33
2019-02-05T01:00:26.093Z,7.20
2019-02-05T01:02:56.503Z,7.10
2019-02-05T01:05:45.336Z,8.53
2019-02-05T01:08:14.931Z,9.63
2019-02-05T01:10:44.890Z,7.97
2019-02-05T01:13:15.958Z,7.57
2019-02-05T01:15:45.702Z,7.40
2019-02-05T01:18:15.286Z,9.47
2019-02-05T01:20:46.357Z,8.37
2019-02-05T01:23:16.434Z,9.57
2019-02-05T01:25:46.010Z,6.97
2019-02-05T01:28:15.579Z,7.43
2019-02-05T01:30:45.189Z,8.43
2019-02-05T01:33:14.768Z,7.80
2019-02-05T01:35:44.315Z,8.50
2019-02-05T01:38:13.906Z,8.77
2019-02-05T01:40:43.558Z,9.97
2019-02-05T01:43:13.281Z,7.27
2019-02-05T01:45:43.247Z,9.70
2019-02-05T01:48:12.898Z,9.00
2019-02-05T01:50:42.457Z,11.53
2019-02-05T01:53:12.072Z,9.37
2019-02-05T01:55:41.721Z,9.27
2019-02-05T01:58:11.296Z,9.10
2019-02-05T02:00:41.084Z,9.63
2019-02-05T02:03:10.946Z,9.77
2019-02-05T02:05:40.954Z,9.50
2019-02-05T02:08:10.565Z,8.33
2019-02-05T02:10:40.212Z,9.60
2019-02-05T02:13:09.947Z,9.40
2019-02-05T02:15:39.572Z,9.03
2019-02-05T02:18:09.303Z,9.93
2019-02-05T02:20:39.194Z,10.13
2019-02-05T02:23:08.947Z,11.17
2019-02-05T02:25:38.605Z,14.00
2019-02-05T02:28:08.374Z,12.00
2019-02-05T02:30:39.492Z,11.77
2019-02-05T02:33:09.368Z,11.63
2019-02-05T02:35:39.110Z,11.27
2019-02-05T02:38:08.849Z,10.63
2019-02-05T02:40:41.337Z,10.90
2019-02-05T02:43:10.900Z,10.00
2019-02-05T02:45:40.573Z,11.43
2019-02-05T02:48:10.380Z,10.37
2019-02-05T02:50:40.143Z,12.17
2019-02-05T02:53:09.950Z,9.93
2019-02-05T02:55:58.888Z,9.13
2019-02-05T02:58:28.494Z,10.13
2019-02-05T03:00:58.001Z,10.03
2019-02-05T03:03:27.730Z,8.80
2019-02-05T03:05:57.504Z,8.10
2019-02-05T03:08:27.091Z,7.83
2019-02-05T03:10:56.826Z,7.93
2019-02-05T03:13:26.449Z,9.67
2019-02-05T03:15:56.382Z,8.30
2019-02-05T03:18:26.815Z,8.73
2019-02-05T03:20:56.421Z,7.67
2019-02-05T03:23:45.256Z,8.43
2019-02-05T03:26:14.861Z,8.37
2019-02-05T03:28:44.731Z,8.20
2019-02-05T03:31:14.288Z,9.70
2019-02-05T03:33:43.911Z,9.47
2019-02-05T03:36:13.499Z,15.10
2019-02-05T03:38:43.230Z,12.83
2019-02-05T03:41:12.836Z,13.47
2019-02-05T03:43:42.923Z,10.47
2019-02-05T03:46:13.143Z,12.00
2019-02-05T03:48:45.606Z,8.50
2019-02-05T03:51:19.663Z,11.63
2019-02-05T03:53:53.893Z,11.13
2019-02-05T03:56:33.946Z,16.47
2019-02-05T03:59:08.572Z,12.83
2019-02-05T04:01:42.598Z,10.20
2019-02-05T04:04:16.711Z,9.50
2019-02-05T04:09:27.341Z,13.40
2019-02-05T04:12:01.747Z,9.77
2019-02-05T04:14:36.014Z,11.57
2019-02-05T04:17:16.149Z,9.37
2019-02-05T04:19:50.333Z,9.63
2019-02-05T04:22:24.394Z,10.10
2019-02-05T04:25:04.820Z,9.67
2019-02-05T04:27:45.093Z,12.27
2019-02-05T04:30:15.037Z,9.03
2019-02-05T04:32:49.066Z,12.23
2019-02-05T04:35:23.158Z,11.53
2019-02-05T04:37:57.708Z,11.70
2019-02-05T04:40:31.794Z,8.80
2019-02-05T04:45:50.832Z,9.60
2019-02-05T04:48:25.256Z,9.87
2019-02-05T04:50:59.717Z,10.17
2019-02-05T04:53:33.763Z,9.73
2019-02-05T04:56:07.812Z,11.10
2019-02-05T04:58:42.115Z,10.23
2019-02-05T05:03:55.890Z,9.43
2019-02-05T05:06:29.937Z,9.97
2019-02-05T05:09:04.736Z,10.13
2019-02-05T05:11:53.617Z,11.83
2019-02-05T05:14:23.203Z,9.57
2019-02-05T05:16:54.259Z,10.57
2019-02-05T05:19:24.567Z,11.17
2019-02-05T05:21:54.783Z,8.90
2019-02-05T05:24:26.191Z,11.47
2019-02-05T05:26:55.923Z,10.07
2019-02-05T05:29:25.650Z,9.50
2019-02-05T05:31:55.523Z,10.87
2019-02-05T05:34:25.487Z,11.23
2019-02-05T05:39:34.558Z,10.23
2019-02-05T05:42:04.696Z,10.77
2019-02-05T05:44:34.306Z,11.07
2019-02-05T05:47:04.743Z,11.93
2019-02-05T05:49:34.370Z,16.50
2019-02-05T05:52:04.111Z,13.13
2019-02-05T05:54:33.913Z,15.27
2019-02-05T05:57:03.498Z,11.83
2019-02-05T05:59:33.088Z,12.43
2019-02-05T06:02:03.073Z,13.40
2019-02-05T06:04:32.867Z,14.67
2019-02-05T06:07:02.462Z,14.00
2019-02-05T06:09:32.139Z,16.87
2019-02-05T06:12:01.711Z,15.30
2019-02-05T06:14:31.305Z,15.83
2019-02-05T06:17:00.919Z,14.27
2019-02-05T06:19:30.713Z,14.33
2019-02-05T06:22:09.017Z,15.10
2019-02-05T06:24:38.634Z,15.63
2019-02-05T06:27:08.369Z,14.33
2019-02-05T06:29:38.223Z,13.40
2019-02-05T06:32:08.089Z,16.97
2019-02-05T06:34:37.737Z,16.37
2019-02-05T06:37:07.667Z,18.93
2019-02-05T06:39:37.243Z,15.53
2019-02-05T06:42:06.955Z,16.57
2019-02-05T06:44:36.609Z,14.97
2019-02-05T06:47:07.815Z,18.13
2019-02-05T06:49:37.492Z,18.43
2019-02-05T06:52:07.374Z,16.50
2019-02-05T06:54:36.938Z,22.83
2019-02-05T06:57:06.877Z,19.73
2019-02-05T06:59:36.474Z,19.67
2019-02-05T07:02:08.653Z,20.13
2019-02-05T07:04:38.523Z,22.33
2019-02-05T07:07:08.452Z,26.63
2019-02-05T07:09:38.367Z,29.13
2019-02-05T07:12:08.026Z,24.93
2019-02-05T07:14:37.628Z,26.00
2019-02-05T07:17:09.623Z,22.97
2019-02-05T07:19:39.211Z,23.30
2019-02-05T07:22:09.113Z,26.27
2019-02-05T07:24:38.753Z,23.50
2019-02-05T07:27:08.342Z,24.67
2019-02-05T07:29:40.700Z,25.47
2019-02-05T07:32:11.219Z,22.27
2019-02-05T07:34:40.795Z,22.33
2019-02-05T07:37:10.562Z,19.17
2019-02-05T07:39:40.315Z,20.80
2019-02-05T07:42:10.285Z,20.20
2019-02-05T07:44:40.219Z,18.10
2019-02-05T07:47:10.010Z,20.77
2019-02-05T07:49:39.949Z,20.23
2019-02-05T07:52:09.595Z,19.13
2019-02-05T07:54:39.228Z,18.53
2019-02-05T07:57:09.074Z,17.43
2019-02-05T07:59:38.870Z,17.27
2019-02-05T08:02:08.658Z,16.03
2019-02-05T08:04:38.231Z,15.87
2019-02-05T08:07:07.905Z,16.33
2019-02-05T08:09:37.608Z,15.23
2019-02-05T08:12:07.235Z,12.47
2019-02-05T08:14:36.918Z,12.98
2019-02-05T08:17:06.474Z,12.33
2019-02-05T08:19:36.114Z,12.63
2019-02-05T08:22:05.983Z,11.85
2019-02-05T08:24:36.062Z,12.07
2019-02-05T08:27:05.921Z,15.50
2019-02-05T08:29:36.195Z,10.18
2019-02-05T08:32:06.108Z,11.22
2019-02-05T08:34:35.852Z,10.95
2019-02-05T08:37:05.960Z,10.65
2019-02-05T08:39:35.828Z,13.90
2019-02-05T08:42:05.963Z,15.40
2019-02-05T08:44:35.611Z,13.68
2019-02-05T08:47:05.231Z,15.90
2019-02-05T08:49:34.933Z,14.00
2019-02-05T08:52:04.661Z,21.20
2019-02-05T08:54:34.236Z,16.12
2019-02-05T08:57:04.221Z,11.53
2019-02-05T08:59:33.972Z,13.80
2019-02-05T09:02:03.931Z,12.15
2019-02-05T09:04:33.603Z,12.50
2019-02-05T09:07:03.220Z,11.60
2019-02-05T09:09:32.872Z,14.23
2019-02-05T09:12:03.128Z,13.78
2019-02-05T09:14:32.803Z,12.53
2019-02-05T09:17:02.433Z,11.70
2019-02-05T09:19:32.164Z,12.40
2019-02-05T09:22:01.835Z,12.70
2019-02-05T09:24:37.606Z,14.15
2019-02-05T09:27:09.306Z,11.90
2019-02-05T09:29:38.932Z,13.08
2019-02-05T09:32:11.257Z,13.65
2019-02-05T09:34:40.959Z,11.68
2019-02-05T09:37:10.601Z,14.40
2019-02-05T09:39:40.228Z,11.70
2019-02-05T09:42:10.288Z,11.93
2019-02-05T09:44:39.912Z,11.43
2019-02-05T09:47:09.693Z,11.50
2019-02-05T09:49:41.031Z,12.47
2019-02-05T09:52:16.386Z,14.33
2019-02-05T09:54:45.992Z,12.50
2019-02-05T09:57:15.860Z,11.60
2019-02-05T09:59:45.868Z,11.78
2019-02-05T10:02:15.519Z,11.45
2019-02-05T10:04:45.168Z,11.25
2019-02-05T10:07:14.793Z,12.07
2019-02-05T10:09:44.409Z,13.22
2019-02-05T10:12:14.485Z,10.95
2019-02-05T10:14:44.110Z,10.78
2019-02-05T10:17:13.766Z,10.68
2019-02-05T10:19:43.528Z,10.30
2019-02-05T10:22:13.360Z,10.08
2019-02-05T10:24:43.160Z,12.10
2019-02-05T10:27:12.923Z,10.93
2019-02-05T10:29:42.544Z,10.80
2019-02-05T10:32:20.279Z,10.43
2019-02-05T10:34:49.950Z,10.35
2019-02-05T10:37:22.527Z,10.70
2019-02-05T10:39:52.148Z,11.38
2019-02-05T10:42:21.854Z,9.73
2019-02-05T10:45:02.055Z,10.35
2019-02-05T10:47:31.621Z,10.70
2019-02-05T10:50:01.213Z,11.48
2019-02-05T10:52:50.389Z,9.90
2019-02-05T10:55:22.474Z,9.60
2019-02-05T10:57:54.669Z,9.25
2019-02-05T11:00:28.279Z,9.88
2019-02-05T11:03:00.765Z,12.07
2019-02-05T11:05:32.381Z,10.30
2019-02-05T11:08:02.231Z,9.65
2019-02-05T11:10:31.916Z,9.30
2019-02-05T11:13:01.711Z,10.50
2019-02-05T11:15:33.430Z,8.40
2019-02-05T11:18:06.936Z,10.28
2019-02-05T11:20:36.801Z,9.95
2019-02-05T11:23:06.895Z,9.13
2019-02-05T11:25:36.907Z,9.13
2019-02-05T11:28:06.715Z,8.00
2019-02-05T11:30:40.566Z,9.30
2019-02-05T11:33:10.813Z,11.30
2019-02-05T11:35:40.564Z,9.43
2019-02-05T11:38:11.063Z,10.23
2019-02-05T11:40:41.756Z,10.03
2019-02-05T11:43:11.462Z,9.85
2019-02-05T11:45:41.538Z,10.75
2019-02-05T11:48:15.244Z,9.43
2019-02-05T11:50:45.131Z,7.05
2019-02-05T11:53:14.940Z,9.43
2019-02-05T11:55:44.822Z,6.30
2019-02-05T11:58:14.759Z,6.35
2019-02-05T12:00:46.771Z,6.85
2019-02-05T12:03:17.539Z,5.17
2019-02-05T12:05:48.715Z,5.40
2019-02-05T12:08:18.905Z,7.10
2019-02-05T12:10:48.667Z,6.72
2019-02-05T12:13:18.239Z,4.55
2019-02-05T12:15:49.500Z,4.15
2019-02-05T12:18:19.379Z,5.40
2019-02-05T12:20:49.260Z,4.90
2019-02-05T12:23:19.182Z,5.05
2019-02-05T12:25:48.920Z,4.25
2019-02-05T12:28:18.506Z,5.25
2019-02-05T12:30:48.889Z,5.12
2019-02-05T12:33:18.517Z,6.47
2019-02-05T12:35:48.657Z,5.70
2019-02-05T12:38:18.555Z,6.85
2019-02-05T12:40:48.483Z,6.08
2019-02-05T12:43:18.221Z,5.45
2019-02-05T12:45:48.491Z,4.75
2019-02-05T12:48:18.095Z,5.50
2019-02-05T12:50:48.303Z,6.30
2019-02-05T12:53:18.010Z,4.55
2019-02-05T12:55:47.711Z,6.28
2019-02-05T12:58:17.399Z,5.80
2019-02-05T13:00:57.421Z,5.10
2019-02-05T13:03:21.373Z,4.60
2019-02-05T13:05:51.887Z,4.15
2019-02-05T13:08:21.802Z,4.75
2019-02-05T13:10:53.324Z,5.65
2019-02-05T13:13:23.443Z,5.90
2019-02-05T13:15:53.250Z,6.25
2019-02-05T13:18:23.331Z,5.90
2019-02-05T13:20:52.957Z,6.42
2019-02-05T13:23:24.118Z,5.72
2019-02-05T13:25:55.403Z,7.03
2019-02-05T13:28:25.095Z,5.22
2019-02-05T13:30:54.929Z,5.80
2019-02-05T13:33:24.778Z,6.45
2019-02-05T13:35:55.984Z,6.20
2019-02-05T13:38:25.762Z,5.70
2019-02-05T13:40:56.825Z,5.62
2019-02-05T13:43:26.560Z,6.42
2019-02-05T13:45:56.790Z,5.92
2019-02-05T13:48:27.838Z,6.17
2019-02-05T13:50:58.914Z,7.13
2019-02-05T13:53:30.417Z,5.53
2019-02-05T13:56:00.056Z,7.53
2019-02-05T13:58:30.094Z,6.73
2019-02-05T14:00:59.970Z,7.77
2019-02-05T14:03:29.591Z,6.73
2019-02-05T14:05:59.211Z,6.00
2019-02-05T14:08:28.987Z,5.10
2019-02-05T14:10:58.618Z,5.23
2019-02-05T14:13:28.782Z,6.43
2019-02-05T14:15:58.777Z,5.05
2019-02-05T14:18:29.883Z,5.50
2019-02-05T14:20:59.492Z,5.63
2019-02-05T14:23:29.140Z,5.60
2019-02-05T14:25:59.731Z,4.87
2019-02-05T14:28:29.662Z,6.00
2019-02-05T14:30:59.639Z,4.80
2019-02-05T14:33:29.433Z,4.53
2019-02-05T14:35:59.284Z,6.00
2019-02-05T14:38:29.770Z,6.03
2019-02-05T14:40:59.908Z,5.37
2019-02-05T14:43:29.603Z,5.07
2019-02-05T14:46:01.098Z,4.40
2019-02-05T14:48:30.690Z,5.73
2019-02-05T14:51:00.306Z,5.80
2019-02-05T14:53:29.993Z,6.37
2019-02-05T14:55:59.566Z,6.33
2019-02-05T14:58:29.227Z,6.87
2019-02-05T15:00:59.122Z,7.90
2019-02-05T15:03:28.833Z,5.27
2019-02-05T15:05:58.584Z,6.27
2019-02-05T15:08:28.420Z,6.07
2019-02-05T15:10:58.419Z,6.00
2019-02-05T15:13:27.970Z,5.40
2019-02-05T15:15:57.571Z,6.83
2019-02-05T15:18:27.339Z,7.20
2019-02-05T15:20:57.291Z,6.57
2019-02-05T15:23:27.024Z,6.37
2019-02-05T15:25:57.156Z,5.40
2019-02-05T15:28:27.021Z,6.50
2019-02-05T15:30:56.680Z,6.43
2019-02-05T15:33:27.885Z,5.53
2019-02-05T15:35:59.300Z,5.17
2019-02-05T15:38:29.534Z,6.10
2019-02-05T15:40:59.717Z,3.80
2019-02-05T15:43:29.481Z,3.47
2019-02-05T15:45:59.287Z,4.57
2019-02-05T15:48:29.064Z,5.10
2019-02-05T15:50:58.672Z,4.63
2019-02-05T15:53:28.385Z,4.70
2019-02-05T15:55:58.358Z,4.33
2019-02-05T15:58:28.102Z,3.37
2019-02-05T16:00:57.882Z,4.27
2019-02-05T16:03:27.472Z,3.83
2019-02-05T16:05:58.555Z,4.47
2019-02-05T16:08:28.601Z,5.60
2019-02-05T16:10:58.208Z,5.63
2019-02-05T16:13:27.790Z,5.33
2019-02-05T16:15:57.403Z,8.67
2019-02-05T16:18:46.255Z,6.47
2019-02-05T16:21:35.548Z,9.70
2019-02-05T16:24:05.623Z,7.90
2019-02-05T16:26:35.204Z,8.03
2019-02-05T16:29:06.050Z,8.47
2019-02-05T16:31:35.719Z,8.33
2019-02-05T16:34:05.570Z,10.83
2019-02-05T16:36:35.384Z,12.47
2019-02-05T16:39:09.540Z,7.83
2019-02-05T16:41:58.459Z,8.53
2019-02-05T16:44:29.506Z,10.20
2019-02-05T16:46:59.216Z,6.77
2019-02-05T16:49:28.882Z,5.57
2019-02-05T16:51:58.831Z,5.37
2019-02-05T16:54:28.400Z,5.10
2019-02-05T16:56:57.993Z,4.60
2019-02-05T16:59:27.749Z,3.77
2019-02-05T17:01:58.848Z,4.03
2019-02-05T17:04:28.475Z,4.37
2019-02-05T17:06:58.196Z,4.13
2019-02-05T17:09:27.795Z,5.93
2019-02-05T17:11:57.572Z,3.50
2019-02-05T17:14:27.189Z,4.37
2019-02-05T17:17:16.103Z,3.27
2019-02-05T17:19:47.154Z,3.73
2019-02-05T17:22:18.570Z,4.37
2019-02-05T17:25:10.797Z,2.97
2019-02-05T17:28:02.116Z,4.33
2019-02-05T17:30:36.003Z,6.53
2019-02-05T17:33:06.786Z,4.10
2019-02-05T17:35:36.407Z,4.80
2019-02-05T17:38:08.884Z,4.57
2019-02-05T17:40:38.814Z,3.53
2019-02-05T17:43:08.666Z,4.33
2019-02-05T17:45:41.758Z,5.17
2019-02-05T17:48:15.461Z,5.67
2019-02-05T17:50:48.481Z,4.40
2019-02-05T17:53:18.304Z,5.97
2019-02-05T17:55:47.868Z,4.40
2019-02-05T17:58:18.026Z,6.87
2019-02-05T18:00:49.519Z,6.23
2019-02-05T18:03:19.595Z,6.07
2019-02-05T18:05:49.268Z,4.87
2019-02-05T18:08:19.005Z,5.83
2019-02-05T18:10:48.630Z,7.07
2019-02-05T18:13:18.373Z,6.90
2019-02-05T18:16:09.244Z,6.33
2019-02-05T18:18:38.840Z,6.37
2019-02-05T18:21:08.389Z,7.50
2019-02-05T18:23:38.717Z,10.63
2019-02-05T18:26:08.404Z,8.23
2019-02-05T18:28:38.797Z,13.90
2019-02-05T18:31:08.988Z,10.17
2019-02-05T18:33:38.636Z,7.50
2019-02-05T18:36:08.428Z,12.40
2019-02-05T18:38:39.387Z,8.73
2019-02-05T18:41:09.458Z,8.67
2019-02-05T18:43:39.334Z,8.90
2019-02-05T18:46:09.223Z,8.90
2019-02-05T18:48:38.884Z,8.23
2019-02-05T18:51:08.469Z,8.30
2019-02-05T18:53:38.072Z,9.20
2019-02-05T18:56:07.896Z,5.53
2019-02-05T18:58:37.474Z,6.20
2019-02-05T19:01:07.565Z,6.37
2019-02-05T19:03:37.245Z,6.20
2019-02-05T19:06:06.893Z,6.67
2019-02-05T19:08:36.456Z,6.97
2019-02-05T19:11:08.528Z,9.20
2019-02-05T19:13:38.113Z,7.70
2019-02-05T19:16:08.216Z,7.90
2019-02-05T19:18:57.110Z,11.10
2019-02-05T19:21:26.683Z,8.63
2019-02-05T19:23:57.828Z,7.90
2019-02-05T19:26:47.334Z,8.03
2019-02-05T19:29:36.174Z,7.90
2019-02-05T19:32:06.234Z,7.53
2019-02-05T19:34:35.780Z,6.77
2019-02-05T19:37:05.607Z,6.87
2019-02-05T19:39:35.217Z,6.43
2019-02-05T19:42:05.119Z,7.97
2019-02-05T19:44:39.024Z,6.77
2019-02-05T19:47:09.006Z,7.00
2019-02-05T19:49:38.562Z,7.10
2019-02-05T19:52:27.864Z,7.20
2019-02-05T19:54:57.642Z,8.27
2019-02-05T19:57:27.267Z,6.33
2019-02-05T19:59:57.151Z,8.00
2019-02-05T20:02:26.715Z,6.57
2019-02-05T20:04:56.301Z,6.07
2019-02-05T20:07:25.905Z,7.93
2019-02-05T20:09:55.452Z,6.67
2019-02-05T20:12:44.798Z,6.10
2019-02-05T20:15:19.666Z,8.00
2019-02-05T20:17:48.528Z,6.00
2019-02-05T20:20:20.607Z,6.73
2019-02-05T20:22:51.932Z,6.80
2019-02-05T20:25:22.997Z,7.93
2019-02-05T20:27:52.839Z,7.50
2019-02-05T20:30:25.039Z,5.23
2019-02-05T20:32:55.633Z,6.83
2019-02-05T20:35:25.330Z,6.57
2019-02-05T20:37:55.194Z,5.67
2019-02-05T20:40:27.052Z,6.13
2019-02-05T20:42:56.883Z,7.70
2019-02-05T20:45:26.532Z,6.30
2019-02-05T20:47:56.233Z,6.33
2019-02-05T20:50:25.963Z,6.83
2019-02-05T20:52:55.920Z,6.73
2019-02-05T20:55:26.649Z,7.03
2019-02-05T20:57:56.391Z,7.80
2019-02-05T21:00:31.792Z,5.67
2019-02-05T21:03:04.633Z,6.97
2019-02-05T21:05:37.160Z,8.67
2019-02-05T21:08:07.328Z,7.90
2019-02-05T21:10:36.912Z,7.07
2019-02-05T21:13:06.868Z,6.43
2019-02-05T21:15:36.521Z,6.53
2019-02-05T21:18:12.119Z,8.27
2019-02-05T21:20:42.078Z,8.40
2019-02-05T21:23:11.657Z,7.00
2019-02-05T21:25:41.260Z,7.43
2019-02-05T21:28:10.972Z,8.90
2019-02-05T21:30:40.528Z,7.53
2019-02-05T21:33:10.572Z,9.70
2019-02-05T21:35:40.544Z,6.67
2019-02-05T21:38:10.172Z,6.37
2019-02-05T21:40:39.833Z,6.67
2019-02-05T21:43:09.593Z,6.07
2019-02-05T21:45:39.173Z,6.57
2019-02-05T21:48:08.748Z,6.57
2019-02-05T21:50:38.724Z,5.73
2019-02-05T21:53:08.299Z,8.97
2019-02-05T21:55:57.175Z,9.30
2019-02-05T21:58:26.765Z,9.10
2019-02-05T22:01:15.697Z,9.23
2019-02-05T22:03:45.232Z,11.13
2019-02-05T22:06:14.917Z,11.60
2019-02-05T22:08:44.610Z,8.57
2019-02-05T22:11:14.156Z,6.87
2019-02-05T22:13:43.601Z,7.90
2019-02-05T22:16:13.373Z,8.67
2019-02-05T22:18:43.484Z,11.60
2019-02-05T22:21:13.686Z,11.33
2019-02-05T22:23:43.318Z,12.07
2019-02-05T22:26:12.903Z,10.07
2019-02-05T22:28:42.490Z,10.10
2019-02-05T22:31:13.554Z,10.17
2019-02-05T22:33:43.298Z,9.33
2019-02-05T22:36:13.205Z,12.17
2019-02-05T22:39:02.099Z,9.63
2019-02-05T22:41:31.785Z,7.70
2019-02-05T22:44:01.438Z,6.93
2019-02-05T22:46:31.033Z,10.77
2019-02-05T22:49:00.707Z,10.57
2019-02-05T22:51:50.041Z,15.90
2019-02-05T22:54:19.647Z,11.93
2019-02-05T22:56:49.493Z,8.53
2019-02-05T22:59:19.602Z,9.27
2019-02-05T23:01:50.332Z,9.53
2019-02-05T23:04:50.590Z,9.17
2019-02-05T23:07:31.465Z,11.93
2019-02-05T23:10:05.767Z,12.50
2019-02-05T23:12:42.235Z,12.33
2019-02-05T23:15:16.536Z,10.10
2019-02-05T23:17:46.285Z,10.93
2019-02-05T23:20:18.779Z,8.63
2019-02-05T23:22:48.719Z,9.40
2019-02-05T23:25:18.576Z,8.70
2019-02-05T23:27:48.392Z,8.80
2019-02-05T23:30:21.898Z,9.37
2019-02-05T23:32:51.506Z,9.17
2019-02-05T23:35:21.724Z,10.13
2019-02-05T23:37:51.479Z,9.67
2019-02-05T23:40:24.306Z,9.00
2019-02-05T23:42:54.401Z,8.13
2019-02-05T23:45:24.149Z,10.13
2019-02-05T23:47:53.701Z,9.07
2019-02-05T23:50:23.880Z,10.77
2019-02-05T23:52:53.557Z,10.87
2019-02-05T23:55:23.160Z,20.27
2019-02-05T23:57:52.733Z,13.23
